sensor_id;sensor_type;location;lat;lon;timestamp;P1;durP1;ratioP1;P2;durP2;ratioP2
59054;SDS011;44845;51.444;7.460;2023-04-01T00:00:15;2.47;;;0.63;;
59054;SDS011;44845;51.444;7.460;2023-04-01T00:02:40;1.48;;;0.40;;
59054;SDS011;44845;51.444;7.460;2023-04-01T00:05:06;3.15;;;0.52;;
59054;SDS011;44845;51.444;7.460;2023-04-01T00:07:32;3.22;;;0.45;;
59054;SDS011;44845;51.444;7.460;2023-04-01T00:09:58;2.28;;;0.40;;
59054;SDS011;44845;51.444;7.460;2023-04-01T00:12:23;1.90;;;0.55;;
59054;SDS011;44845;51.444;7.460;2023-04-01T00:14:50;4.38;;;0.68;;
59054;SDS011;44845;51.444;7.460;2023-04-01T00:17:15;1.48;;;0.30;;
59054;SDS011;44845;51.444;7.460;2023-04-01T00:19:40;2.08;;;0.32;;
59054;SDS011;44845;51.444;7.460;2023-04-01T00:22:06;3.30;;;0.30;;
59054;SDS011;44845;51.444;7.460;2023-04-01T00:24:34;3.70;;;0.35;;
59054;SDS011;44845;51.444;7.460;2023-04-01T00:26:59;1.20;;;0.30;;
59054;SDS011;44845;51.444;7.460;2023-04-01T00:29:24;3.00;;;0.50;;
59054;SDS011;44845;51.444;7.460;2023-04-01T00:31:54;3.63;;;0.73;;
59054;SDS011;44845;51.444;7.460;2023-04-01T00:34:20;2.47;;;0.32;;
59054;SDS011;44845;51.444;7.460;2023-04-01T00:36:46;3.70;;;0.22;;
59054;SDS011;44845;51.444;7.460;2023-04-01T00:39:11;1.63;;;0.30;;
59054;SDS011;44845;51.444;7.460;2023-04-01T00:41:36;0.60;;;0.20;;
59054;SDS011;44845;51.444;7.460;2023-04-01T00:44:14;3.63;;;0.22;;
59054;SDS011;44845;51.444;7.460;2023-04-01T00:46:45;1.23;;;0.30;;
59054;SDS011;44845;51.444;7.460;2023-04-01T00:49:11;1.30;;;0.40;;
59054;SDS011;44845;51.444;7.460;2023-04-01T00:51:37;1.38;;;0.30;;
59054;SDS011;44845;51.444;7.460;2023-04-01T00:54:05;2.00;;;0.28;;
59054;SDS011;44845;51.444;7.460;2023-04-01T00:56:40;1.02;;;0.25;;
59054;SDS011;44845;51.444;7.460;2023-04-01T00:59:16;1.17;;;0.28;;
59054;SDS011;44845;51.444;7.460;2023-04-01T01:01:45;0.53;;;0.40;;
59054;SDS011;44845;51.444;7.460;2023-04-01T01:04:25;1.95;;;0.22;;
59054;SDS011;44845;51.444;7.460;2023-04-01T01:09:30;3.50;;;0.20;;
59054;SDS011;44845;51.444;7.460;2023-04-01T01:14:54;1.02;;;0.15;;
59054;SDS011;44845;51.444;7.460;2023-04-01T01:17:43;0.35;;;0.10;;
59054;SDS011;44845;51.444;7.460;2023-04-01T01:29:05;0.98;;;0.38;;
59054;SDS011;44845;51.444;7.460;2023-04-01T01:36:36;0.20;;;0.20;;
59054;SDS011;44845;51.444;7.460;2023-04-01T01:39:05;0.55;;;0.25;;
59054;SDS011;44845;51.444;7.460;2023-04-01T01:41:34;1.10;;;0.32;;
59054;SDS011;44845;51.444;7.460;2023-04-01T01:44:03;1.73;;;0.20;;
59054;SDS011;44845;51.444;7.460;2023-04-01T01:46:32;2.65;;;0.35;;
59054;SDS011;44845;51.444;7.460;2023-04-01T01:48:58;1.30;;;0.30;;
59054;SDS011;44845;51.444;7.460;2023-04-01T01:51:26;1.58;;;0.30;;
59054;SDS011;44845;51.444;7.460;2023-04-01T01:53:53;0.82;;;0.20;;
59054;SDS011;44845;51.444;7.460;2023-04-01T01:56:18;0.88;;;0.30;;
59054;SDS011;44845;51.444;7.460;2023-04-01T01:58:49;0.38;;;0.20;;
59054;SDS011;44845;51.444;7.460;2023-04-01T02:01:26;0.77;;;0.20;;
59054;SDS011;44845;51.444;7.460;2023-04-01T02:03:55;1.40;;;0.30;;
59054;SDS011;44845;51.444;7.460;2023-04-01T02:06:23;0.77;;;0.25;;
59054;SDS011;44845;51.444;7.460;2023-04-01T02:08:57;0.45;;;0.30;;
59054;SDS011;44845;51.444;7.460;2023-04-01T02:11:32;1.73;;;0.30;;
59054;SDS011;44845;51.444;7.460;2023-04-01T02:14:03;0.30;;;0.30;;
59054;SDS011;44845;51.444;7.460;2023-04-01T02:19:08;1.80;;;0.22;;
59054;SDS011;44845;51.444;7.460;2023-04-01T02:21:36;0.93;;;0.28;;
59054;SDS011;44845;51.444;7.460;2023-04-01T02:24:04;1.35;;;0.45;;
59054;SDS011;44845;51.444;7.460;2023-04-01T02:26:34;3.35;;;0.20;;
59054;SDS011;44845;51.444;7.460;2023-04-01T02:29:00;2.53;;;0.43;;
59054;SDS011;44845;51.444;7.460;2023-04-01T02:31:28;0.43;;;0.15;;
59054;SDS011;44845;51.444;7.460;2023-04-01T02:33:54;1.58;;;0.20;;
59054;SDS011;44845;51.444;7.460;2023-04-01T02:36:21;1.80;;;0.40;;
59054;SDS011;44845;51.444;7.460;2023-04-01T02:38:46;0.20;;;0.17;;
59054;SDS011;44845;51.444;7.460;2023-04-01T02:41:13;0.55;;;0.20;;
59054;SDS011;44845;51.444;7.460;2023-04-01T02:43:38;0.32;;;0.20;;
59054;SDS011;44845;51.444;7.460;2023-04-01T02:46:04;1.88;;;0.30;;
59054;SDS011;44845;51.444;7.460;2023-04-01T02:48:29;0.75;;;0.30;;
59054;SDS011;44845;51.444;7.460;2023-04-01T02:50:55;0.43;;;0.10;;
59054;SDS011;44845;51.444;7.460;2023-04-01T02:53:21;3.50;;;0.30;;
59054;SDS011;44845;51.444;7.460;2023-04-01T02:55:47;1.95;;;0.30;;
59054;SDS011;44845;51.444;7.460;2023-04-01T02:58:15;1.08;;;0.17;;
59054;SDS011;44845;51.444;7.460;2023-04-01T03:00:41;0.30;;;0.30;;
59054;SDS011;44845;51.444;7.460;2023-04-01T03:03:06;1.13;;;0.20;;
59054;SDS011;44845;51.444;7.460;2023-04-01T03:05:33;1.63;;;0.20;;
59054;SDS011;44845;51.444;7.460;2023-04-01T03:07:58;1.23;;;0.30;;
59054;SDS011;44845;51.444;7.460;2023-04-01T03:10:23;1.88;;;0.20;;
59054;SDS011;44845;51.444;7.460;2023-04-01T03:12:49;0.38;;;0.10;;
59054;SDS011;44845;51.444;7.460;2023-04-01T03:15:14;1.25;;;0.20;;
59054;SDS011;44845;51.444;7.460;2023-04-01T03:17:40;0.75;;;0.30;;
59054;SDS011;44845;51.444;7.460;2023-04-01T03:20:06;0.55;;;0.10;;
59054;SDS011;44845;51.444;7.460;2023-04-01T03:22:33;0.35;;;0.20;;
59054;SDS011;44845;51.444;7.460;2023-04-01T03:25:00;1.05;;;0.28;;
59054;SDS011;44845;51.444;7.460;2023-04-01T03:27:25;0.55;;;0.13;;
59054;SDS011;44845;51.444;7.460;2023-04-01T03:29:50;0.57;;;0.13;;
59054;SDS011;44845;51.444;7.460;2023-04-01T03:32:16;0.35;;;0.20;;
59054;SDS011;44845;51.444;7.460;2023-04-01T03:34:41;0.55;;;0.15;;
59054;SDS011;44845;51.444;7.460;2023-04-01T03:37:06;2.08;;;0.30;;
59054;SDS011;44845;51.444;7.460;2023-04-01T03:39:32;1.05;;;0.13;;
59054;SDS011;44845;51.444;7.460;2023-04-01T03:41:57;0.93;;;0.20;;
59054;SDS011;44845;51.444;7.460;2023-04-01T03:44:23;1.30;;;0.35;;
59054;SDS011;44845;51.444;7.460;2023-04-01T03:46:48;1.00;;;0.20;;
59054;SDS011;44845;51.444;7.460;2023-04-01T03:49:13;0.40;;;0.10;;
59054;SDS011;44845;51.444;7.460;2023-04-01T03:51:39;0.40;;;0.20;;
59054;SDS011;44845;51.444;7.460;2023-04-01T03:54:06;1.38;;;0.20;;
59054;SDS011;44845;51.444;7.460;2023-04-01T03:56:32;0.60;;;0.20;;
59054;SDS011;44845;51.444;7.460;2023-04-01T03:58:58;0.17;;;0.10;;
59054;SDS011;44845;51.444;7.460;2023-04-01T04:01:26;0.43;;;0.10;;
59054;SDS011;44845;51.444;7.460;2023-04-01T04:03:51;0.47;;;0.10;;
59054;SDS011;44845;51.444;7.460;2023-04-01T04:06:17;1.65;;;0.10;;
59054;SDS011;44845;51.444;7.460;2023-04-01T04:08:44;0.30;;;0.20;;
59054;SDS011;44845;51.444;7.460;2023-04-01T04:11:09;0.15;;;0.10;;
59054;SDS011;44845;51.444;7.460;2023-04-01T04:13:35;0.20;;;0.10;;
59054;SDS011;44845;51.444;7.460;2023-04-01T04:16:01;1.02;;;0.10;;
59054;SDS011;44845;51.444;7.460;2023-04-01T04:18:27;0.75;;;0.20;;
59054;SDS011;44845;51.444;7.460;2023-04-01T04:20:53;0.17;;;0.10;;
59054;SDS011;44845;51.444;7.460;2023-04-01T04:23:18;1.17;;;0.30;;
59054;SDS011;44845;51.444;7.460;2023-04-01T04:26:00;1.23;;;0.30;;
59054;SDS011;44845;51.444;7.460;2023-04-01T04:28:28;0.73;;;0.30;;
59054;SDS011;44845;51.444;7.460;2023-04-01T04:30:55;0.20;;;0.20;;
59054;SDS011;44845;51.444;7.460;2023-04-01T04:33:24;0.88;;;0.20;;
59054;SDS011;44845;51.444;7.460;2023-04-01T04:35:50;1.85;;;0.30;;
59054;SDS011;44845;51.444;7.460;2023-04-01T04:38:15;0.68;;;0.30;;
59054;SDS011;44845;51.444;7.460;2023-04-01T04:40:41;1.52;;;0.22;;
59054;SDS011;44845;51.444;7.460;2023-04-01T04:43:09;0.30;;;0.30;;
59054;SDS011;44845;51.444;7.460;2023-04-01T04:45:36;0.35;;;0.30;;
59054;SDS011;44845;51.444;7.460;2023-04-01T04:48:01;0.55;;;0.40;;
59054;SDS011;44845;51.444;7.460;2023-04-01T04:50:27;1.95;;;0.20;;
59054;SDS011;44845;51.444;7.460;2023-04-01T04:52:52;2.35;;;0.40;;
59054;SDS011;44845;51.444;7.460;2023-04-01T04:55:18;0.68;;;0.40;;
59054;SDS011;44845;51.444;7.460;2023-04-01T04:57:43;0.30;;;0.30;;
59054;SDS011;44845;51.444;7.460;2023-04-01T05:00:09;0.43;;;0.22;;
59054;SDS011;44845;51.444;7.460;2023-04-01T05:02:38;1.55;;;0.65;;
59054;SDS011;44845;51.444;7.460;2023-04-01T05:05:03;0.77;;;0.50;;
59054;SDS011;44845;51.444;7.460;2023-04-01T05:07:29;0.55;;;0.30;;
59054;SDS011;44845;51.444;7.460;2023-04-01T05:09:55;1.38;;;0.40;;
59054;SDS011;44845;51.444;7.460;2023-04-01T05:12:20;0.90;;;0.20;;
59054;SDS011;44845;51.444;7.460;2023-04-01T05:14:45;0.60;;;0.40;;
59054;SDS011;44845;51.444;7.460;2023-04-01T05:17:11;0.50;;;0.32;;
59054;SDS011;44845;51.444;7.460;2023-04-01T05:19:37;0.98;;;0.40;;
59054;SDS011;44845;51.444;7.460;2023-04-01T05:22:03;0.30;;;0.30;;
59054;SDS011;44845;51.444;7.460;2023-04-01T05:24:30;0.85;;;0.30;;
59054;SDS011;44845;51.444;7.460;2023-04-01T05:26:55;0.68;;;0.35;;
59054;SDS011;44845;51.444;7.460;2023-04-01T05:29:22;0.50;;;0.30;;
59054;SDS011;44845;51.444;7.460;2023-04-01T05:31:47;1.45;;;0.40;;
59054;SDS011;44845;51.444;7.460;2023-04-01T05:34:13;0.90;;;0.35;;
59054;SDS011;44845;51.444;7.460;2023-04-01T05:36:38;0.40;;;0.30;;
59054;SDS011;44845;51.444;7.460;2023-04-01T05:39:04;0.40;;;0.32;;
59054;SDS011;44845;51.444;7.460;2023-04-01T05:41:30;4.38;;;0.32;;
59054;SDS011;44845;51.444;7.460;2023-04-01T05:43:55;0.90;;;0.40;;
59054;SDS011;44845;51.444;7.460;2023-04-01T05:46:20;0.60;;;0.30;;
59054;SDS011;44845;51.444;7.460;2023-04-01T05:48:46;0.90;;;0.40;;
59054;SDS011;44845;51.444;7.460;2023-04-01T05:51:14;0.30;;;0.30;;
59054;SDS011;44845;51.444;7.460;2023-04-01T05:53:41;0.85;;;0.38;;
59054;SDS011;44845;51.444;7.460;2023-04-01T05:56:07;0.60;;;0.40;;
59054;SDS011;44845;51.444;7.460;2023-04-01T05:58:34;0.32;;;0.28;;
59054;SDS011;44845;51.444;7.460;2023-04-01T06:01:01;0.82;;;0.40;;
59054;SDS011;44845;51.444;7.460;2023-04-01T06:03:27;3.90;;;0.60;;
59054;SDS011;44845;51.444;7.460;2023-04-01T06:05:52;0.82;;;0.40;;
59054;SDS011;44845;51.444;7.460;2023-04-01T06:08:18;0.35;;;0.30;;
59054;SDS011;44845;51.444;7.460;2023-04-01T06:10:48;1.55;;;0.30;;
59054;SDS011;44845;51.444;7.460;2023-04-01T06:13:42;1.15;;;0.40;;
59054;SDS011;44845;51.444;7.460;2023-04-01T06:16:32;1.20;;;0.28;;
59054;SDS011;44845;51.444;7.460;2023-04-01T06:24:43;1.15;;;0.40;;
59054;SDS011;44845;51.444;7.460;2023-04-01T06:27:30;1.55;;;0.50;;
59054;SDS011;44845;51.444;7.460;2023-04-01T06:38:01;1.55;;;0.40;;
59054;SDS011;44845;51.444;7.460;2023-04-01T06:46:22;1.15;;;0.30;;
59054;SDS011;44845;51.444;7.460;2023-04-01T06:51:48;1.08;;;0.20;;
59054;SDS011;44845;51.444;7.460;2023-04-01T06:54:34;0.30;;;0.30;;
59054;SDS011;44845;51.444;7.460;2023-04-01T06:57:05;0.73;;;0.20;;
59054;SDS011;44845;51.444;7.460;2023-04-01T06:59:44;0.20;;;0.20;;
59054;SDS011;44845;51.444;7.460;2023-04-01T07:04:36;0.75;;;0.30;;
59054;SDS011;44845;51.444;7.460;2023-04-01T07:07:16;1.95;;;0.50;;
59054;SDS011;44845;51.444;7.460;2023-04-01T07:09:50;0.20;;;0.20;;
59054;SDS011;44845;51.444;7.460;2023-04-01T07:17:41;0.57;;;0.30;;
59054;SDS011;44845;51.444;7.460;2023-04-01T07:22:59;0.68;;;0.38;;
59054;SDS011;44845;51.444;7.460;2023-04-01T07:25:43;0.43;;;0.38;;
59054;SDS011;44845;51.444;7.460;2023-04-01T07:30:48;0.43;;;0.30;;
59054;SDS011;44845;51.444;7.460;2023-04-01T07:41:39;0.40;;;0.40;;
59054;SDS011;44845;51.444;7.460;2023-04-01T07:44:13;0.20;;;0.20;;
59054;SDS011;44845;51.444;7.460;2023-04-01T07:47:10;0.38;;;0.32;;
59054;SDS011;44845;51.444;7.460;2023-04-01T07:52:11;0.30;;;0.30;;
59054;SDS011;44845;51.444;7.460;2023-04-01T07:54:53;0.30;;;0.30;;
59054;SDS011;44845;51.444;7.460;2023-04-01T08:10:23;2.05;;;0.20;;
59054;SDS011;44845;51.444;7.460;2023-04-01T08:13:10;0.38;;;0.25;;
59054;SDS011;44845;51.444;7.460;2023-04-01T08:18:26;0.73;;;0.30;;
59054;SDS011;44845;51.444;7.460;2023-04-01T08:21:10;0.20;;;0.20;;
59054;SDS011;44845;51.444;7.460;2023-04-01T08:23:44;1.23;;;0.32;;
59054;SDS011;44845;51.444;7.460;2023-04-01T08:26:13;0.98;;;0.25;;
59054;SDS011;44845;51.444;7.460;2023-04-01T08:28:51;0.35;;;0.30;;
59054;SDS011;44845;51.444;7.460;2023-04-01T08:31:24;0.70;;;0.25;;
59054;SDS011;44845;51.444;7.460;2023-04-01T08:34:08;1.58;;;0.20;;
59054;SDS011;44845;51.444;7.460;2023-04-01T08:36:43;0.35;;;0.20;;
59054;SDS011;44845;51.444;7.460;2023-04-01T08:39:58;0.93;;;0.20;;
59054;SDS011;44845;51.444;7.460;2023-04-01T08:53:39;0.65;;;0.20;;
59054;SDS011;44845;51.444;7.460;2023-04-01T09:07:13;0.30;;;0.30;;
59054;SDS011;44845;51.444;7.460;2023-04-01T09:15:50;0.55;;;0.30;;
59054;SDS011;44845;51.444;7.460;2023-04-01T09:29:49;1.58;;;0.40;;
59054;SDS011;44845;51.444;7.460;2023-04-01T09:48:50;0.95;;;0.50;;
59054;SDS011;44845;51.444;7.460;2023-04-01T10:11:50;2.50;;;1.40;;
59054;SDS011;44845;51.444;7.460;2023-04-01T10:42:02;2.40;;;2.20;;
59054;SDS011;44845;51.444;7.460;2023-04-01T10:44:44;2.50;;;2.30;;
59054;SDS011;44845;51.444;7.460;2023-04-01T10:47:48;2.53;;;2.30;;
59054;SDS011;44845;51.444;7.460;2023-04-01T10:50:33;2.97;;;2.78;;
59054;SDS011;44845;51.444;7.460;2023-04-01T11:19:02;2.40;;;2.20;;
59054;SDS011;44845;51.444;7.460;2023-04-01T11:27:56;1.67;;;1.58;;
59054;SDS011;44845;51.444;7.460;2023-04-01T11:38:34;1.92;;;1.70;;
59054;SDS011;44845;51.444;7.460;2023-04-01T11:41:32;1.70;;;1.60;;
59054;SDS011;44845;51.444;7.460;2023-04-01T11:49:29;1.50;;;1.40;;
59054;SDS011;44845;51.444;7.460;2023-04-01T12:06:37;1.42;;;1.33;;
59054;SDS011;44845;51.444;7.460;2023-04-01T12:16:59;3.00;;;1.55;;
59054;SDS011;44845;51.444;7.460;2023-04-01T12:24:49;2.63;;;1.15;;
59054;SDS011;44845;51.444;7.460;2023-04-01T12:30:00;3.60;;;1.48;;
59054;SDS011;44845;51.444;7.460;2023-04-01T12:35:47;2.15;;;1.33;;
59054;SDS011;44845;51.444;7.460;2023-04-01T12:38:36;1.00;;;1.00;;
59054;SDS011;44845;51.444;7.460;2023-04-01T12:41:17;2.42;;;1.30;;
59054;SDS011;44845;51.444;7.460;2023-04-01T12:47:09;1.30;;;1.20;;
59054;SDS011;44845;51.444;7.460;2023-04-01T12:52:50;2.08;;;1.10;;
59054;SDS011;44845;51.444;7.460;2023-04-01T13:04:14;0.68;;;0.68;;
59054;SDS011;44845;51.444;7.460;2023-04-01T13:07:15;2.35;;;0.90;;
59054;SDS011;44845;51.444;7.460;2023-04-01T13:09:57;0.77;;;0.60;;
59054;SDS011;44845;51.444;7.460;2023-04-01T13:15:33;1.38;;;1.00;;
59054;SDS011;44845;51.444;7.460;2023-04-01T13:18:25;1.42;;;1.33;;
59054;SDS011;44845;51.444;7.460;2023-04-01T13:21:18;0.95;;;0.95;;
59054;SDS011;44845;51.444;7.460;2023-04-01T13:29:39;2.47;;;1.50;;
59054;SDS011;44845;51.444;7.460;2023-04-01T13:32:27;1.80;;;1.70;;
59054;SDS011;44845;51.444;7.460;2023-04-01T13:43:31;3.72;;;2.38;;
59054;SDS011;44845;51.444;7.460;2023-04-01T13:48:29;2.20;;;2.00;;
59054;SDS011;44845;51.444;7.460;2023-04-01T13:54:10;3.13;;;2.93;;
59054;SDS011;44845;51.444;7.460;2023-04-01T13:56:56;2.72;;;2.53;;
59054;SDS011;44845;51.444;7.460;2023-04-01T13:59:48;4.07;;;2.63;;
59054;SDS011;44845;51.444;7.460;2023-04-01T14:20:00;2.30;;;2.20;;
59054;SDS011;44845;51.444;7.460;2023-04-01T14:28:24;2.13;;;1.50;;
59054;SDS011;44845;51.444;7.460;2023-04-01T14:39:43;2.05;;;1.85;;
59054;SDS011;44845;51.444;7.460;2023-04-01T14:53:43;1.67;;;1.40;;
59054;SDS011;44845;51.444;7.460;2023-04-01T14:56:34;1.83;;;1.27;;
59054;SDS011;44845;51.444;7.460;2023-04-01T14:59:39;2.25;;;1.50;;
59054;SDS011;44845;51.444;7.460;2023-04-01T15:04:56;2.40;;;1.58;;
59054;SDS011;44845;51.444;7.460;2023-04-01T15:07:31;1.48;;;1.38;;
59054;SDS011;44845;51.444;7.460;2023-04-01T15:10:22;2.45;;;1.55;;
59054;SDS011;44845;51.444;7.460;2023-04-01T15:23:59;1.70;;;1.60;;
59054;SDS011;44845;51.444;7.460;2023-04-01T15:26:43;2.30;;;1.48;;
59054;SDS011;44845;51.444;7.460;2023-04-01T15:37:37;1.73;;;1.63;;
59054;SDS011;44845;51.444;7.460;2023-04-01T15:40:11;2.22;;;2.03;;
59054;SDS011;44845;51.444;7.460;2023-04-01T15:45:41;2.75;;;2.55;;
59054;SDS011;44845;51.444;7.460;2023-04-01T15:48:20;2.70;;;2.50;;
59054;SDS011;44845;51.444;7.460;2023-04-01T16:11:51;4.13;;;3.72;;
59054;SDS011;44845;51.444;7.460;2023-04-01T16:13:58;4.35;;;3.88;;
59054;SDS011;44845;51.444;7.460;2023-04-01T16:27:04;4.15;;;3.75;;
59054;SDS011;44845;51.444;7.460;2023-04-01T16:29:45;4.10;;;3.70;;
59054;SDS011;44845;51.444;7.460;2023-04-01T16:32:27;3.90;;;3.60;;
59054;SDS011;44845;51.444;7.460;2023-04-01T16:34:56;4.60;;;4.22;;
59054;SDS011;44845;51.444;7.460;2023-04-01T16:37:32;4.55;;;4.15;;
59054;SDS011;44845;51.444;7.460;2023-04-01T16:42:40;4.72;;;4.22;;
59054;SDS011;44845;51.444;7.460;2023-04-01T16:45:19;3.88;;;3.58;;
59054;SDS011;44845;51.444;7.460;2023-04-01T16:47:50;3.60;;;3.22;;
59054;SDS011;44845;51.444;7.460;2023-04-01T16:50:21;4.03;;;3.20;;
59054;SDS011;44845;51.444;7.460;2023-04-01T16:52:57;3.60;;;3.30;;
59054;SDS011;44845;51.444;7.460;2023-04-01T16:55:24;3.28;;;2.83;;
59054;SDS011;44845;51.444;7.460;2023-04-01T16:58:00;3.20;;;2.90;;
59054;SDS011;44845;51.444;7.460;2023-04-01T17:00:27;3.55;;;3.20;;
59054;SDS011;44845;51.444;7.460;2023-04-01T17:06:03;3.05;;;2.75;;
59054;SDS011;44845;51.444;7.460;2023-04-01T17:11:45;2.80;;;2.60;;
59054;SDS011;44845;51.444;7.460;2023-04-01T17:19:46;2.88;;;2.50;;
59054;SDS011;44845;51.444;7.460;2023-04-01T17:40:29;3.10;;;1.90;;
59054;SDS011;44845;51.444;7.460;2023-04-01T17:43:22;2.30;;;1.60;;
59054;SDS011;44845;51.444;7.460;2023-04-01T17:51:42;2.13;;;1.92;;
59054;SDS011;44845;51.444;7.460;2023-04-01T17:54:34;2.22;;;2.13;;
59054;SDS011;44845;51.444;7.460;2023-04-01T18:00:17;2.65;;;2.20;;
59054;SDS011;44845;51.444;7.460;2023-04-01T18:19:44;3.58;;;3.22;;
59054;SDS011;44845;51.444;7.460;2023-04-01T18:22:33;3.45;;;3.08;;
59054;SDS011;44845;51.444;7.460;2023-04-01T18:25:26;3.72;;;3.42;;
59054;SDS011;44845;51.444;7.460;2023-04-01T18:30:50;4.35;;;3.25;;
59054;SDS011;44845;51.444;7.460;2023-04-01T18:33:23;4.00;;;3.60;;
59054;SDS011;44845;51.444;7.460;2023-04-01T18:36:15;4.05;;;3.65;;
59054;SDS011;44845;51.444;7.460;2023-04-01T18:38:54;4.80;;;4.07;;
59054;SDS011;44845;51.444;7.460;2023-04-01T18:41:36;4.28;;;3.85;;
59054;SDS011;44845;51.444;7.460;2023-04-01T18:45:09;4.95;;;4.50;;
59054;SDS011;44845;51.444;7.460;2023-04-01T18:50:14;4.45;;;4.15;;
59054;SDS011;44845;51.444;7.460;2023-04-01T18:52:48;4.20;;;3.80;;
59054;SDS011;44845;51.444;7.460;2023-04-01T18:58:20;5.30;;;3.55;;
59054;SDS011;44845;51.444;7.460;2023-04-01T19:01:02;4.50;;;4.10;;
59054;SDS011;44845;51.444;7.460;2023-04-01T19:03:55;5.65;;;4.45;;
59054;SDS011;44845;51.444;7.460;2023-04-01T19:06:33;5.38;;;4.32;;
59054;SDS011;44845;51.444;7.460;2023-04-01T19:09:11;5.00;;;4.50;;
59054;SDS011;44845;51.444;7.460;2023-04-01T19:25:39;5.50;;;5.00;;
59054;SDS011;44845;51.444;7.460;2023-04-01T19:36:29;5.00;;;4.40;;
59054;SDS011;44845;51.444;7.460;2023-04-01T19:39:06;5.03;;;4.00;;
59054;SDS011;44845;51.444;7.460;2023-04-01T19:46:55;5.47;;;3.90;;
59054;SDS011;44845;51.444;7.460;2023-04-01T19:49:33;5.43;;;3.50;;
59054;SDS011;44845;51.444;7.460;2023-04-01T19:52:19;3.63;;;3.20;;
59054;SDS011;44845;51.444;7.460;2023-04-01T19:57:52;3.53;;;3.23;;
59054;SDS011;44845;51.444;7.460;2023-04-01T20:00:41;2.80;;;2.50;;
59054;SDS011;44845;51.444;7.460;2023-04-01T20:03:20;2.95;;;2.65;;
59054;SDS011;44845;51.444;7.460;2023-04-01T20:09:04;3.30;;;2.15;;
59054;SDS011;44845;51.444;7.460;2023-04-01T20:11:58;2.05;;;1.95;;
59054;SDS011;44845;51.444;7.460;2023-04-01T20:14:49;2.17;;;1.98;;
59054;SDS011;44845;51.444;7.460;2023-04-01T20:19:59;3.45;;;1.92;;
59054;SDS011;44845;51.444;7.460;2023-04-01T20:22:30;2.50;;;2.30;;
59054;SDS011;44845;51.444;7.460;2023-04-01T20:25:10;2.42;;;2.22;;
59054;SDS011;44845;51.444;7.460;2023-04-01T20:27:49;2.85;;;2.63;;
59054;SDS011;44845;51.444;7.460;2023-04-01T20:30:25;3.22;;;2.40;;
59054;SDS011;44845;51.444;7.460;2023-04-01T20:33:16;3.85;;;2.60;;
59054;SDS011;44845;51.444;7.460;2023-04-01T20:38:58;3.00;;;2.75;;
59054;SDS011;44845;51.444;7.460;2023-04-01T20:44:09;3.63;;;3.33;;
59054;SDS011;44845;51.444;7.460;2023-04-01T20:49:20;4.00;;;3.60;;
59054;SDS011;44845;51.444;7.460;2023-04-01T21:02:46;5.53;;;4.25;;
59054;SDS011;44845;51.444;7.460;2023-04-01T21:08:36;4.40;;;4.00;;
59054;SDS011;44845;51.444;7.460;2023-04-01T21:11:16;5.18;;;3.85;;
59054;SDS011;44845;51.444;7.460;2023-04-01T21:18:57;3.13;;;2.47;;
59054;SDS011;44845;51.444;7.460;2023-04-01T21:21:37;1.20;;;1.10;;
59054;SDS011;44845;51.444;7.460;2023-04-01T21:50:44;1.70;;;1.60;;
59054;SDS011;44845;51.444;7.460;2023-04-01T21:53:41;2.05;;;1.73;;
59054;SDS011;44845;51.444;7.460;2023-04-01T22:02:33;1.55;;;1.45;;
59054;SDS011;44845;51.444;7.460;2023-04-01T22:05:20;1.60;;;1.50;;
59054;SDS011;44845;51.444;7.460;2023-04-01T22:13:20;1.65;;;1.55;;
59054;SDS011;44845;51.444;7.460;2023-04-01T22:15:59;1.60;;;1.50;;
59054;SDS011;44845;51.444;7.460;2023-04-01T22:21:07;1.50;;;1.40;;
59054;SDS011;44845;51.444;7.460;2023-04-01T22:23:47;1.48;;;1.38;;
59054;SDS011;44845;51.444;7.460;2023-04-01T22:26:43;1.65;;;1.55;;
59054;SDS011;44845;51.444;7.460;2023-04-01T22:29:25;1.67;;;1.55;;
59054;SDS011;44845;51.444;7.460;2023-04-01T22:32:26;1.42;;;1.33;;
59054;SDS011;44845;51.444;7.460;2023-04-01T22:35:08;1.83;;;1.73;;
59054;SDS011;44845;51.444;7.460;2023-04-01T22:37:46;1.95;;;1.77;;
59054;SDS011;44845;51.444;7.460;2023-04-01T22:42:56;1.80;;;1.70;;
59054;SDS011;44845;51.444;7.460;2023-04-01T22:48:26;1.85;;;1.75;;
59054;SDS011;44845;51.444;7.460;2023-04-01T22:51:13;1.80;;;1.70;;
59054;SDS011;44845;51.444;7.460;2023-04-01T22:56:27;1.45;;;1.35;;
59054;SDS011;44845;51.444;7.460;2023-04-01T23:01:25;1.73;;;1.63;;
59054;SDS011;44845;51.444;7.460;2023-04-01T23:03:55;1.40;;;1.30;;
59054;SDS011;44845;51.444;7.460;2023-04-01T23:06:25;1.70;;;1.60;;
59054;SDS011;44845;51.444;7.460;2023-04-01T23:09:08;1.58;;;1.48;;
59054;SDS011;44845;51.444;7.460;2023-04-01T23:11:42;1.70;;;1.60;;
59054;SDS011;44845;51.444;7.460;2023-04-01T23:16:57;2.08;;;1.45;;
59054;SDS011;44845;51.444;7.460;2023-04-01T23:22:23;2.35;;;1.70;;
59054;SDS011;44845;51.444;7.460;2023-04-01T23:27:35;1.95;;;1.85;;
59054;SDS011;44845;51.444;7.460;2023-04-01T23:33:10;1.98;;;1.88;;
59054;SDS011;44845;51.444;7.460;2023-04-01T23:35:52;2.20;;;2.00;;
59054;SDS011;44845;51.444;7.460;2023-04-01T23:38:30;3.17;;;2.30;;
59054;SDS011;44845;51.444;7.460;2023-04-01T23:40:57;2.20;;;2.10;;
59054;SDS011;44845;51.444;7.460;2023-04-01T23:43:33;2.33;;;2.17;;
59054;SDS011;44845;51.444;7.460;2023-04-01T23:46:02;2.30;;;2.10;;
59054;SDS011;44845;51.444;7.460;2023-04-01T23:48:46;2.40;;;2.20;;
59054;SDS011;44845;51.444;7.460;2023-04-01T23:51:13;2.10;;;2.00;;
59054;SDS011;44845;51.444;7.460;2023-04-01T23:53:44;2.40;;;2.25;;
59054;SDS011;44845;51.444;7.460;2023-04-01T23:56:11;2.22;;;2.03;;
59054;SDS011;44845;51.444;7.460;2023-04-01T23:58:46;2.15;;;2.05;;
